createdAt,value
2018-05-11T00:00:26.243Z,90.50
2018-05-11T00:02:54.317Z,90.60
2018-05-11T00:05:22.398Z,90.60
2018-05-11T00:07:50.892Z,90.80
2018-05-11T00:10:18.967Z,90.80
2018-05-11T00:12:47.026Z,90.80
2018-05-11T00:15:15.132Z,90.80
2018-05-11T00:17:43.205Z,90.70
2018-05-11T00:20:12.066Z,90.70
2018-05-11T00:22:40.629Z,90.70
2018-05-11T00:25:09.735Z,90.70
2018-05-11T00:27:37.781Z,90.70
2018-05-11T00:30:06.178Z,90.70
2018-05-11T00:32:34.269Z,90.90
2018-05-11T00:35:02.355Z,90.70
2018-05-11T00:37:30.700Z,90.80
2018-05-11T00:39:58.755Z,90.80
2018-05-11T00:42:26.833Z,90.90
2018-05-11T00:44:55.120Z,90.90
2018-05-11T00:47:23.181Z,90.90
2018-05-11T00:49:51.265Z,90.80
2018-05-11T00:52:19.346Z,90.90
2018-05-11T00:54:47.441Z,90.80
2018-05-11T00:57:16.279Z,91.00
2018-05-11T00:59:44.369Z,90.90
2018-05-11T01:02:12.417Z,90.80
2018-05-11T01:04:40.489Z,91.00
2018-05-11T01:07:09.013Z,91.00
2018-05-11T01:09:37.476Z,90.90
2018-05-11T01:12:05.565Z,91.20
2018-05-11T01:14:33.652Z,91.60
2018-05-11T01:17:02.635Z,91.50
2018-05-11T01:19:31.401Z,91.40
2018-05-11T01:21:59.805Z,91.30
2018-05-11T01:24:27.861Z,91.30
2018-05-11T01:26:55.937Z,91.60
2018-05-11T01:29:24.423Z,91.30
2018-05-11T01:31:52.481Z,91.40
2018-05-11T01:34:21.713Z,91.50
2018-05-11T01:36:50.556Z,91.70
2018-05-11T01:39:18.665Z,91.70
2018-05-11T01:41:47.052Z,91.60
2018-05-11T01:44:15.901Z,91.70
2018-05-11T01:46:43.973Z,91.60
2018-05-11T01:49:12.029Z,91.60
2018-05-11T01:51:40.100Z,91.80
2018-05-11T01:54:08.185Z,91.80
2018-05-11T01:56:36.482Z,91.80
2018-05-11T01:59:04.569Z,92.20
2018-05-11T02:01:33.409Z,91.80
2018-05-11T02:04:01.537Z,91.80
2018-05-11T02:06:30.387Z,91.80
2018-05-11T02:08:58.461Z,91.80
2018-05-11T02:11:26.839Z,92.00
2018-05-11T02:13:54.897Z,92.00
2018-05-11T02:16:22.969Z,91.90
2018-05-11T02:18:51.165Z,92.00
2018-05-11T02:21:19.254Z,91.90
2018-05-11T02:23:48.807Z,91.90
2018-05-11T02:26:16.909Z,91.80
2018-05-11T02:28:44.953Z,91.60
2018-05-11T02:31:13.054Z,91.50
2018-05-11T02:33:41.125Z,91.70
2018-05-11T02:36:09.245Z,91.40
2018-05-11T02:38:37.344Z,91.30
2018-05-11T02:41:05.427Z,91.30
2018-05-11T02:43:33.508Z,91.20
2018-05-11T02:46:01.553Z,91.20
2018-05-11T02:48:30.032Z,91.50
2018-05-11T02:50:58.060Z,91.70
2018-05-11T02:53:26.893Z,91.80
2018-05-11T02:55:55.298Z,91.80
2018-05-11T02:58:23.373Z,91.70
2018-05-11T03:00:51.447Z,91.80
2018-05-11T03:03:19.904Z,92.00
2018-05-11T03:05:47.997Z,91.70
2018-05-11T03:08:16.074Z,91.70
2018-05-11T03:10:44.137Z,91.70
2018-05-11T03:13:12.387Z,91.70
2018-05-11T03:15:40.429Z,91.70
2018-05-11T03:18:09.257Z,91.60
2018-05-11T03:20:37.333Z,91.60
2018-05-11T03:23:05.388Z,91.60
2018-05-11T03:25:33.933Z,91.60
2018-05-11T03:28:02.741Z,91.60
2018-05-11T03:30:30.837Z,91.50
2018-05-11T03:32:59.130Z,91.30
2018-05-11T03:35:27.205Z,91.30
2018-05-11T03:37:56.301Z,91.30
2018-05-11T03:40:24.399Z,91.40
2018-05-11T03:42:52.491Z,91.60
2018-05-11T03:45:21.340Z,91.50
2018-05-11T03:47:49.661Z,91.50
2018-05-11T03:50:18.473Z,91.50
2018-05-11T03:52:46.541Z,91.50
2018-05-11T03:55:15.652Z,91.40
2018-05-11T03:57:43.717Z,91.40
2018-05-11T04:00:12.064Z,91.40
2018-05-11T04:02:40.917Z,91.40
2018-05-11T04:05:09.008Z,91.40
2018-05-11T04:07:37.077Z,91.60
2018-05-11T04:10:05.668Z,91.60
2018-05-11T04:12:34.521Z,91.70
2018-05-11T04:15:02.568Z,91.70
2018-05-11T04:17:31.685Z,91.40
2018-05-11T04:19:59.808Z,91.40
2018-05-11T04:22:28.656Z,91.30
2018-05-11T04:24:56.753Z,91.20
2018-05-11T04:27:24.880Z,91.30
2018-05-11T04:29:52.940Z,91.40
2018-05-11T04:32:21.037Z,91.10
2018-05-11T04:34:49.141Z,91.10
2018-05-11T04:37:17.278Z,91.20
2018-05-11T04:39:46.597Z,91.30
2018-05-11T04:42:14.669Z,91.30
2018-05-11T04:44:42.721Z,91.30
2018-05-11T04:47:11.091Z,91.40
2018-05-11T04:49:39.173Z,91.30
2018-05-11T04:52:07.257Z,91.20
2018-05-11T04:54:35.741Z,91.30
2018-05-11T04:57:03.793Z,91.30
2018-05-11T04:59:31.877Z,91.20
2018-05-11T05:01:59.940Z,91.20
2018-05-11T05:04:27.994Z,91.10
2018-05-11T05:06:56.093Z,90.90
2018-05-11T05:09:24.141Z,90.90
2018-05-11T05:11:52.237Z,90.70
2018-05-11T05:14:20.278Z,90.80
2018-05-11T05:16:48.767Z,91.00
2018-05-11T05:19:16.918Z,90.70
2018-05-11T05:21:44.914Z,90.50
2018-05-11T05:24:13.009Z,90.70
2018-05-11T05:26:41.154Z,90.50
2018-05-11T05:29:09.221Z,90.50
2018-05-11T05:31:37.633Z,90.30
2018-05-11T05:34:05.714Z,90.20
2018-05-11T05:36:33.777Z,90.30
2018-05-11T05:39:02.249Z,90.40
2018-05-11T05:41:30.444Z,90.50
2018-05-11T05:43:59.296Z,89.40
2018-05-11T05:46:27.380Z,89.40
2018-05-11T05:48:55.452Z,89.00
2018-05-11T05:51:23.521Z,88.60
2018-05-11T05:53:52.204Z,87.50
2018-05-11T05:56:20.280Z,86.60
2018-05-11T05:58:48.352Z,86.70
2018-05-11T06:01:16.743Z,87.10
2018-05-11T06:03:44.817Z,86.80
2018-05-11T06:06:12.889Z,87.50
2018-05-11T06:08:41.283Z,86.70
2018-05-11T06:11:09.329Z,86.80
2018-05-11T06:13:37.427Z,87.00
2018-05-11T06:16:06.680Z,86.70
2018-05-11T06:18:35.662Z,86.60
2018-05-11T06:21:03.735Z,84.80
2018-05-11T06:23:31.841Z,84.50
2018-05-11T06:25:59.917Z,83.90
2018-05-11T06:28:27.957Z,83.20
2018-05-11T06:30:56.061Z,82.60
2018-05-11T06:33:24.150Z,82.70
2018-05-11T06:35:52.988Z,84.90
2018-05-11T06:38:21.321Z,84.90
2018-05-11T06:40:50.208Z,83.20
2018-05-11T06:43:19.091Z,82.10
2018-05-11T06:45:47.185Z,82.00
2018-05-11T06:48:16.042Z,82.30
2018-05-11T06:50:44.097Z,82.20
2018-05-11T06:53:12.189Z,81.00
2018-05-11T06:55:40.388Z,79.50
2018-05-11T06:58:09.235Z,80.00
2018-05-11T07:00:37.521Z,80.00
2018-05-11T07:03:05.610Z,78.40
2018-05-11T07:05:33.693Z,79.90
2018-05-11T07:08:03.014Z,78.80
2018-05-11T07:10:31.133Z,78.80
2018-05-11T07:12:59.200Z,77.10
2018-05-11T07:15:27.377Z,80.20
2018-05-11T07:17:55.483Z,75.40
2018-05-11T07:20:24.335Z,68.60
2018-05-11T07:22:52.742Z,68.60
2018-05-11T07:25:20.804Z,67.10
2018-05-11T07:27:48.881Z,64.60
2018-05-11T07:30:16.947Z,66.10
2018-05-11T07:32:45.223Z,61.20
2018-05-11T07:35:13.345Z,59.40
2018-05-11T07:37:41.729Z,62.00
2018-05-11T07:40:09.829Z,59.50
2018-05-11T07:42:37.928Z,59.20
2018-05-11T07:45:06.237Z,58.60
2018-05-11T07:47:34.354Z,55.30
2018-05-11T07:50:02.409Z,58.30
2018-05-11T07:52:30.532Z,57.40
2018-05-11T07:55:00.213Z,54.20
2018-05-11T07:57:28.277Z,54.30
2018-05-11T07:59:56.373Z,49.90
2018-05-11T08:02:24.737Z,51.00
2018-05-11T08:04:53.582Z,53.60
2018-05-11T08:07:21.658Z,53.40
2018-05-11T08:09:49.733Z,54.70
2018-05-11T08:12:17.796Z,53.10
2018-05-11T08:14:45.918Z,52.80
2018-05-11T08:17:14.300Z,53.60
2018-05-11T08:19:43.348Z,52.60
2018-05-11T08:22:11.417Z,52.30
2018-05-11T08:24:39.534Z,54.90
2018-05-11T08:27:07.613Z,52.10
2018-05-11T08:29:35.712Z,53.10
2018-05-11T08:32:04.127Z,50.40
2018-05-11T08:34:32.214Z,51.60
2018-05-11T08:37:00.310Z,47.50
2018-05-11T08:39:30.431Z,47.30
2018-05-11T08:41:59.717Z,47.50
2018-05-11T08:44:27.833Z,47.20
2018-05-11T08:46:55.917Z,47.50
2018-05-11T08:49:24.321Z,48.50
2018-05-11T08:51:52.481Z,51.20
2018-05-11T08:54:20.457Z,47.30
2018-05-11T08:56:48.861Z,46.50
2018-05-11T08:59:16.961Z,45.20
2018-05-11T09:01:45.816Z,43.90
2018-05-11T09:04:13.921Z,44.00
2018-05-11T09:06:42.857Z,45.00
2018-05-11T09:09:10.945Z,45.00
2018-05-11T09:11:39.272Z,48.00
2018-05-11T09:14:07.389Z,52.60
2018-05-11T09:16:35.477Z,50.20
2018-05-11T09:19:03.629Z,51.40
2018-05-11T09:21:31.713Z,51.20
2018-05-11T09:23:59.800Z,56.50
2018-05-11T09:26:27.904Z,55.30
2018-05-11T09:28:56.761Z,49.80
2018-05-11T09:31:24.814Z,49.60
2018-05-11T09:33:52.933Z,44.40
2018-05-11T09:36:21.791Z,41.80
2018-05-11T09:38:49.877Z,41.80
2018-05-11T09:41:18.460Z,39.60
2018-05-11T09:43:46.709Z,41.50
2018-05-11T09:46:14.792Z,38.80
2018-05-11T09:48:43.084Z,38.50
2018-05-11T09:51:11.157Z,38.80
2018-05-11T09:53:40.812Z,37.80
2018-05-11T09:56:09.497Z,37.80
2018-05-11T09:58:37.573Z,36.50
2018-05-11T10:01:05.694Z,37.70
2018-05-11T10:03:34.765Z,40.20
2018-05-11T10:06:02.849Z,40.00
2018-05-11T10:08:30.913Z,41.10
2018-05-11T10:10:59.022Z,42.90
2018-05-11T10:13:27.953Z,46.60
2018-05-11T10:15:55.966Z,46.60
2018-05-11T10:18:25.137Z,44.20
2018-05-11T10:20:53.429Z,44.00
2018-05-11T10:23:21.509Z,40.20
2018-05-11T10:25:51.626Z,41.40
2018-05-11T10:28:19.677Z,41.40
2018-05-11T10:30:47.745Z,41.90
2018-05-11T10:33:16.128Z,41.70
2018-05-11T10:35:44.232Z,40.90
2018-05-11T10:38:13.088Z,39.50
2018-05-11T10:40:41.198Z,39.50
2018-05-11T10:43:10.077Z,40.30
2018-05-11T10:45:38.274Z,40.30
2018-05-11T10:48:07.570Z,38.10
2018-05-11T10:50:36.409Z,40.50
2018-05-11T10:53:04.518Z,40.40
2018-05-11T10:55:33.357Z,44.80
2018-05-11T10:58:01.425Z,44.80
2018-05-11T11:00:29.513Z,42.70
2018-05-11T11:02:57.618Z,43.60
2018-05-11T11:05:25.685Z,42.90
2018-05-11T11:07:53.768Z,42.90
2018-05-11T11:10:23.273Z,39.30
2018-05-11T11:12:52.113Z,38.70
2018-05-11T11:15:20.224Z,38.70
2018-05-11T11:17:48.289Z,38.60
2018-05-11T11:20:16.369Z,38.80
2018-05-11T11:22:44.409Z,37.10
2018-05-11T11:25:12.504Z,36.90
2018-05-11T11:27:41.483Z,36.40
2018-05-11T11:30:09.546Z,35.90
2018-05-11T11:32:37.649Z,36.70
2018-05-11T11:35:05.717Z,39.40
2018-05-11T11:37:34.591Z,41.30
2018-05-11T11:40:02.656Z,41.20
2018-05-11T11:42:30.956Z,38.80
2018-05-11T11:44:59.020Z,39.30
2018-05-11T11:47:27.151Z,38.70
2018-05-11T11:49:55.553Z,40.70
2018-05-11T11:52:24.742Z,40.50
2018-05-11T11:54:52.877Z,40.00
2018-05-11T11:57:21.711Z,38.70
2018-05-11T11:59:49.825Z,38.60
2018-05-11T12:02:18.701Z,37.60
2018-05-11T12:04:46.752Z,37.60
2018-05-11T12:07:14.847Z,38.70
2018-05-11T12:09:42.917Z,38.30
2018-05-11T12:12:10.996Z,37.80
2018-05-11T12:14:40.290Z,36.10
2018-05-11T12:17:08.542Z,36.00
2018-05-11T12:19:36.620Z,38.30
2018-05-11T12:22:04.736Z,39.40
2018-05-11T12:24:32.806Z,40.30
2018-05-11T12:27:00.857Z,39.70
2018-05-11T12:29:29.723Z,39.20
2018-05-11T12:31:57.799Z,39.30
2018-05-11T12:34:26.649Z,39.30
2018-05-11T12:36:55.856Z,39.20
2018-05-11T12:39:23.944Z,38.50
2018-05-11T12:41:52.000Z,38.80
2018-05-11T12:44:20.420Z,40.00
2018-05-11T12:46:48.487Z,40.70
2018-05-11T12:49:16.533Z,43.00
2018-05-11T12:51:44.637Z,41.20
2018-05-11T12:54:12.717Z,41.20
2018-05-11T12:56:41.572Z,42.50
2018-05-11T12:59:10.041Z,42.60
2018-05-11T13:01:38.220Z,45.30
2018-05-11T13:04:06.281Z,43.20
2018-05-11T13:06:34.353Z,42.70
2018-05-11T13:09:02.410Z,39.00
2018-05-11T13:11:30.483Z,36.70
2018-05-11T13:13:58.568Z,36.10
2018-05-11T13:16:26.669Z,35.60
2018-05-11T13:18:54.741Z,38.40
2018-05-11T13:21:22.985Z,39.50
2018-05-11T13:23:51.189Z,40.00
2018-05-11T13:26:19.319Z,38.20
2018-05-11T13:28:47.401Z,37.20
2018-05-11T13:31:15.489Z,38.30
2018-05-11T13:33:43.548Z,37.70
2018-05-11T13:36:12.468Z,37.20
2018-05-11T13:38:40.560Z,38.20
2018-05-11T13:41:09.400Z,37.80
2018-05-11T13:43:38.525Z,37.80
2018-05-11T13:46:06.576Z,38.60
2018-05-11T13:48:34.770Z,40.30
2018-05-11T13:51:02.810Z,40.20
2018-05-11T13:53:30.902Z,41.00
2018-05-11T13:55:58.989Z,41.50
2018-05-11T13:58:27.893Z,41.70
2018-05-11T14:00:55.961Z,40.60
2018-05-11T14:03:24.033Z,40.20
2018-05-11T14:05:52.921Z,38.00
2018-05-11T14:08:20.997Z,37.50
2018-05-11T14:10:49.036Z,39.50
2018-05-11T14:13:17.141Z,39.90
2018-05-11T14:15:46.008Z,39.90
2018-05-11T14:18:14.068Z,39.80
2018-05-11T14:20:42.173Z,40.00
2018-05-11T14:23:11.231Z,40.40
2018-05-11T14:25:39.343Z,40.30
2018-05-11T14:28:08.201Z,41.00
2018-05-11T14:30:36.272Z,41.00
2018-05-11T14:33:04.369Z,41.60
2018-05-11T14:35:32.704Z,41.20
2018-05-11T14:38:00.822Z,41.10
2018-05-11T14:40:28.889Z,43.20
2018-05-11T14:42:57.049Z,43.40
2018-05-11T14:45:25.105Z,43.50
2018-05-11T14:47:53.356Z,43.50
2018-05-11T14:50:21.461Z,44.20
2018-05-11T14:52:49.557Z,43.80
2018-05-11T14:55:17.599Z,43.10
2018-05-11T14:57:46.013Z,43.00
2018-05-11T15:00:14.253Z,41.90
2018-05-11T15:02:42.344Z,42.40
2018-05-11T15:05:10.713Z,41.90
2018-05-11T15:07:39.489Z,41.80
2018-05-11T15:10:07.690Z,42.30
2018-05-11T15:12:36.587Z,42.60
2018-05-11T15:15:04.661Z,43.70
2018-05-11T15:17:33.521Z,44.60
2018-05-11T15:20:01.592Z,44.60
2018-05-11T15:22:29.693Z,44.60
2018-05-11T15:24:58.557Z,44.60
2018-05-11T15:27:27.121Z,44.60
2018-05-11T15:29:56.361Z,44.60
2018-05-11T15:32:24.424Z,44.10
2018-05-11T15:34:52.505Z,44.10
2018-05-11T15:37:21.485Z,44.30
2018-05-11T15:39:50.661Z,43.80
2018-05-11T15:42:18.777Z,44.50
2018-05-11T15:44:47.657Z,44.80
2018-05-11T15:47:15.745Z,44.80
2018-05-11T15:49:44.568Z,44.10
2018-05-11T15:52:12.664Z,44.00
2018-05-11T15:54:41.053Z,45.50
2018-05-11T15:57:09.151Z,45.20
2018-05-11T15:59:38.001Z,45.10
2018-05-11T16:02:06.480Z,45.00
2018-05-11T16:04:34.546Z,45.50
2018-05-11T16:07:02.653Z,45.80
2018-05-11T16:09:30.737Z,46.00
2018-05-11T16:11:59.580Z,47.00
2018-05-11T16:14:28.712Z,47.00
2018-05-11T16:16:57.549Z,47.90
2018-05-11T16:19:25.648Z,47.80
2018-05-11T16:21:54.025Z,48.30
2018-05-11T16:24:22.093Z,50.20
2018-05-11T16:26:50.205Z,49.40
2018-05-11T16:29:19.045Z,50.00
2018-05-11T16:31:47.105Z,50.00
2018-05-11T16:34:15.184Z,50.50
2018-05-11T16:36:44.209Z,51.70
2018-05-11T16:39:12.265Z,50.60
2018-05-11T16:41:40.389Z,52.20
2018-05-11T16:44:09.409Z,50.80
2018-05-11T16:46:38.118Z,50.80
2018-05-11T16:49:06.200Z,50.90
2018-05-11T16:51:34.880Z,51.80
2018-05-11T16:54:02.953Z,50.10
2018-05-11T16:56:31.031Z,49.40
2018-05-11T16:58:59.449Z,49.90
2018-05-11T17:01:27.489Z,49.70
2018-05-11T17:03:55.542Z,49.40
2018-05-11T17:06:23.928Z,48.80
2018-05-11T17:08:52.027Z,48.20
2018-05-11T17:11:20.861Z,48.40
2018-05-11T17:13:48.989Z,48.30
2018-05-11T17:16:17.842Z,49.60
2018-05-11T17:18:45.949Z,49.00
2018-05-11T17:21:14.839Z,48.80
2018-05-11T17:23:44.717Z,49.50
2018-05-11T17:26:12.773Z,49.40
2018-05-11T17:28:41.700Z,49.40
2018-05-11T17:31:09.754Z,50.90
2018-05-11T17:33:37.850Z,51.20
2018-05-11T17:36:05.916Z,50.50
2018-05-11T17:38:33.997Z,51.00
2018-05-11T17:41:02.066Z,51.30
2018-05-11T17:43:30.964Z,53.80
2018-05-11T17:45:59.797Z,52.20
2018-05-11T17:48:28.745Z,52.20
2018-05-11T17:50:58.146Z,55.30
2018-05-11T17:53:27.854Z,55.10
2018-05-11T17:55:56.699Z,56.20
2018-05-11T17:58:25.692Z,56.10
2018-05-11T18:00:53.773Z,56.90
2018-05-11T18:03:21.868Z,55.70
2018-05-11T18:05:50.228Z,56.50
2018-05-11T18:08:18.336Z,57.00
2018-05-11T18:10:47.639Z,58.80
2018-05-11T18:13:16.462Z,59.40
2018-05-11T18:15:44.556Z,59.30
2018-05-11T18:18:12.669Z,60.10
2018-05-11T18:20:41.509Z,61.30
2018-05-11T18:23:09.595Z,61.20
2018-05-11T18:25:37.710Z,62.10
2018-05-11T18:28:05.792Z,63.20
2018-05-11T18:30:33.897Z,64.60
2018-05-11T18:33:02.366Z,65.80
2018-05-11T18:35:30.566Z,67.80
2018-05-11T18:37:58.665Z,69.10
2018-05-11T18:40:26.760Z,70.40
2018-05-11T18:42:56.421Z,70.70
2018-05-11T18:45:24.496Z,70.70
2018-05-11T18:47:52.590Z,72.20
2018-05-11T18:50:20.688Z,73.20
2018-05-11T18:52:49.531Z,74.50
2018-05-11T18:55:17.586Z,74.50
2018-05-11T18:57:45.665Z,75.00
2018-05-11T19:00:14.686Z,75.00
2018-05-11T19:02:42.757Z,75.30
2018-05-11T19:05:11.824Z,76.20
2018-05-11T19:07:39.926Z,76.50
2018-05-11T19:10:08.771Z,77.10
2018-05-11T19:12:36.873Z,77.00
2018-05-11T19:15:04.957Z,76.90
2018-05-11T19:17:33.030Z,76.80
2018-05-11T19:20:02.230Z,78.70
2018-05-11T19:22:31.117Z,78.40
2018-05-11T19:25:00.009Z,78.70
2018-05-11T19:27:28.915Z,78.60
2018-05-11T19:29:57.189Z,78.40
2018-05-11T19:32:26.056Z,79.10
2018-05-11T19:34:54.461Z,79.10
2018-05-11T19:37:24.241Z,79.80
2018-05-11T19:39:52.329Z,79.80
2018-05-11T19:42:20.428Z,80.40
2018-05-11T19:44:48.761Z,80.80
2018-05-11T19:47:16.809Z,80.80
2018-05-11T19:49:44.914Z,80.40
2018-05-11T19:52:14.104Z,80.40
2018-05-11T19:54:42.156Z,80.40
2018-05-11T19:57:10.381Z,80.30
2018-05-11T19:59:39.473Z,81.70
2018-05-11T20:02:08.509Z,82.10
2018-05-11T20:04:37.473Z,82.10
2018-05-11T20:07:06.353Z,82.50
2018-05-11T20:09:35.230Z,82.50
2018-05-11T20:12:04.441Z,83.00
2018-05-11T20:14:33.272Z,83.30
2018-05-11T20:17:01.357Z,83.90
2018-05-11T20:19:29.461Z,83.50
2018-05-11T20:21:58.321Z,84.20
2018-05-11T20:24:26.405Z,83.50
2018-05-11T20:26:54.769Z,83.10
2018-05-11T20:29:22.957Z,83.20
2018-05-11T20:31:51.033Z,83.90
2018-05-11T20:34:19.293Z,84.40
2018-05-11T20:36:47.364Z,84.50
2018-05-11T20:39:15.441Z,84.10
2018-05-11T20:41:43.537Z,84.20
2018-05-11T20:44:12.401Z,84.40
2018-05-11T20:46:40.496Z,84.40
2018-05-11T20:49:08.877Z,84.60
2018-05-11T20:51:37.749Z,85.00
2018-05-11T20:54:05.809Z,84.90
2018-05-11T20:56:33.897Z,85.20
2018-05-11T20:59:02.006Z,85.10
2018-05-11T21:01:31.585Z,85.50
2018-05-11T21:03:59.648Z,85.40
2018-05-11T21:06:27.724Z,85.70
2018-05-11T21:08:57.416Z,86.20
2018-05-11T21:11:25.486Z,86.10
2018-05-11T21:13:53.557Z,86.20
2018-05-11T21:16:21.889Z,86.20
2018-05-11T21:18:51.016Z,86.30
2018-05-11T21:21:19.113Z,86.80
2018-05-11T21:23:47.190Z,86.80
2018-05-11T21:26:15.577Z,87.20
2018-05-11T21:28:44.568Z,87.20
2018-05-11T21:31:12.649Z,87.30
2018-05-11T21:33:41.501Z,86.80
2018-05-11T21:36:09.595Z,87.30
2018-05-11T21:38:37.689Z,87.20
2018-05-11T21:41:07.490Z,87.20
2018-05-11T21:43:35.504Z,87.20
2018-05-11T21:46:03.577Z,87.10
2018-05-11T21:48:31.666Z,87.10
2018-05-11T21:50:59.737Z,87.30
2018-05-11T21:53:27.838Z,87.00
2018-05-11T21:55:56.221Z,86.90
2018-05-11T21:58:24.285Z,87.70
2018-05-11T22:00:52.384Z,87.70
2018-05-11T22:03:21.731Z,88.60
2018-05-11T22:05:49.988Z,88.50
2018-05-11T22:08:18.000Z,88.50
2018-05-11T22:10:46.361Z,88.00
2018-05-11T22:13:14.426Z,88.20
2018-05-11T22:15:42.505Z,88.40
2018-05-11T22:18:11.272Z,88.90
2018-05-11T22:20:39.365Z,89.30
2018-05-11T22:23:07.471Z,89.30
2018-05-11T22:25:36.669Z,89.30
2018-05-11T22:28:05.525Z,89.20
2018-05-11T22:30:33.633Z,89.00
2018-05-11T22:33:02.787Z,89.80
2018-05-11T22:35:30.854Z,89.60
2018-05-11T22:37:58.972Z,89.70
2018-05-11T22:40:28.273Z,89.70
2018-05-11T22:42:57.225Z,89.20
2018-05-11T22:45:25.308Z,89.10
2018-05-11T22:47:53.392Z,88.60
2018-05-11T22:50:21.484Z,89.00
2018-05-11T22:52:50.348Z,89.20
2018-05-11T22:55:18.465Z,89.20
2018-05-11T22:57:46.524Z,88.70
2018-05-11T23:00:15.389Z,89.30
2018-05-11T23:02:43.901Z,89.30
2018-05-11T23:05:11.969Z,89.10
2018-05-11T23:07:40.917Z,89.30
2018-05-11T23:10:09.731Z,89.30
2018-05-11T23:12:38.618Z,89.40
2018-05-11T23:15:06.668Z,89.30
2018-05-11T23:17:34.741Z,89.20
2018-05-11T23:20:02.813Z,89.00
2018-05-11T23:22:32.494Z,88.90
2018-05-11T23:25:00.921Z,89.20
2018-05-11T23:27:28.972Z,89.60
2018-05-11T23:29:57.065Z,89.20
2018-05-11T23:32:25.445Z,89.20
2018-05-11T23:34:54.309Z,89.30
2018-05-11T23:37:22.364Z,89.30
2018-05-11T23:39:50.784Z,89.80
2018-05-11T23:42:18.856Z,89.80
2018-05-11T23:44:46.929Z,90.20
2018-05-11T23:47:16.025Z,90.10
2018-05-11T23:49:44.161Z,90.10
2018-05-11T23:52:12.959Z,90.10
2018-05-11T23:54:42.141Z,90.10
2018-05-11T23:57:10.249Z,90.10
2018-05-11T23:59:38.528Z,90.20
